Time;durP1;ratioP1;P1;durP2;ratioP2;P2;SDS_P1;SDS_P2;PMS_P1;PMS_P2;Temp;Humidity;BMP_temperature;BMP_pressure;BME280_temperature;BME280_humidity;BME280_pressure;Samples;Min_cycle;Max_cycle;Signal;HPM_P1;HPM_P2
2023/04/30 00:00:54;;;;;;;;;29.75;27.00;;;;;13.21;58.12;101623.41;5064095;28;45370;-69
2023/04/30 00:03:20;;;;;;;;;25.25;23.75;;;;;13.22;57.28;101630.47;5061790;27;45966;-69
2023/04/30 00:05:49;;;;;;;;;25.00;23.75;;;;;13.25;57.46;101628.72;5067709;27;45390;-69
2023/04/30 00:08:15;;;;;;;;;24.50;21.50;;;;;13.29;58.52;101640.19;5077218;27;45645;-69
2023/04/30 00:10:40;;;;;;;;;25.75;23.25;;;;;13.38;58.00;101636.69;5091608;27;45389;-69
2023/04/30 00:13:06;;;;;;;;;24.50;21.00;;;;;13.50;57.23;101640.28;5067071;27;45965;-67
2023/04/30 00:15:31;;;;;;;;;26.25;21.25;;;;;13.54;57.49;101639.41;5053939;28;45433;-68
2023/04/30 00:17:57;;;;;;;;;31.75;26.50;;;;;13.50;56.94;101624.50;5060194;27;45408;-69
2023/04/30 00:20:22;;;;;;;;;33.00;28.50;;;;;13.56;57.32;101624.50;5109414;27;45405;-68
2023/04/30 00:22:48;;;;;;;;;24.50;21.25;;;;;13.55;57.34;101614.84;5076403;28;45798;-69
2023/04/30 00:25:13;;;;;;;;;27.50;24.50;;;;;13.63;57.09;101624.53;5074920;27;45400;-70
2023/04/30 00:27:39;;;;;;;;;34.75;30.75;;;;;13.64;56.43;101621.00;5060298;27;45777;-69
2023/04/30 00:30:05;;;;;;;;;39.75;35.50;;;;;13.64;56.64;101627.16;5067631;27;45813;-69
2023/04/30 00:32:31;;;;;;;;;40.75;33.75;;;;;13.49;57.23;101606.91;5057445;27;46605;-70
2023/04/30 00:34:56;;;;;;;;;40.50;30.25;;;;;13.46;56.91;101630.59;5056140;27;45638;-69
2023/04/30 00:37:22;;;;;;;;;30.50;27.25;;;;;13.38;57.64;101624.41;5075497;27;45809;-69
2023/04/30 00:39:47;;;;;;;;;44.00;33.75;;;;;13.30;57.16;101610.34;5069000;27;45424;-69
2023/04/30 00:42:13;;;;;;;;;33.50;27.50;;;;;13.34;57.78;101613.00;5056551;27;47182;-69
2023/04/30 00:44:38;;;;;;;;;31.00;26.75;;;;;13.41;57.56;101613.06;5071437;27;45498;-70
2023/04/30 00:47:04;;;;;;;;;27.00;22.00;;;;;13.35;58.00;101604.22;5061420;27;45371;-68
2023/04/30 00:49:29;;;;;;;;;29.25;25.00;;;;;13.34;58.20;101609.50;5077322;27;45812;-68
2023/04/30 00:51:55;;;;;;;;;34.50;27.50;;;;;13.37;58.28;101604.25;5073531;27;46941;-68
2023/04/30 00:54:22;;;;;;;;;27.00;24.50;;;;;13.38;58.08;101594.59;5060444;27;45544;-69
2023/04/30 00:56:48;;;;;;;;;27.50;23.25;;;;;13.42;57.93;101607.78;5078714;28;46003;-69
2023/04/30 00:59:14;;;;;;;;;33.00;26.50;;;;;13.26;57.69;101583.09;5085806;27;45537;-69
2023/04/30 01:01:40;;;;;;;;;29.25;28.00;;;;;13.43;58.05;101608.66;5059382;27;45955;-69
2023/04/30 01:04:06;;;;;;;;;33.50;26.25;;;;;13.39;58.03;101604.25;5054226;28;45823;-69
2023/04/30 01:06:32;;;;;;;;;34.00;27.50;;;;;13.38;57.97;101598.09;5060029;27;45420;-69
2023/04/30 01:08:58;;;;;;;;;35.00;31.00;;;;;13.28;58.14;101604.19;5075100;28;45803;-69
2023/04/30 01:11:51;;;;;;;;;29.75;27.25;;;;;13.29;58.00;101608.59;5073801;27;45489;-68
2023/04/30 01:14:28;;;;;;;;;28.00;23.75;;;;;13.23;58.31;101591.00;5076073;27;45537;-70
2023/04/30 01:17:05;;;;;;;;;37.00;28.50;;;;;13.18;58.50;101589.22;5072656;27;45494;-69
2023/04/30 01:19:46;;;;;;;;;28.00;27.50;;;;;13.23;57.92;101591.00;5070182;28;45535;-68
2023/04/30 01:22:59;;;;;;;;;34.50;28.75;;;;;13.25;57.79;101588.38;5078528;27;46689;-68
2023/04/30 01:25:49;;;;;;;;;27.50;24.50;;;;;13.16;57.62;101590.06;5065740;28;45453;-69
2023/04/30 01:28:17;;;;;;;;;29.25;26.75;;;;;13.20;57.76;101590.13;5060960;27;45355;-68
2023/04/30 01:30:46;;;;;;;;;23.50;22.50;;;;;13.14;58.50;101575.16;5078834;27;45314;-69
2023/04/30 01:33:12;;;;;;;;;20.25;17.75;;;;;13.14;57.75;101577.78;5071241;27;45394;-67
2023/04/30 01:36:22;;;;;;;;;29.00;23.25;;;;;13.07;58.60;101573.38;5083873;27;45429;-69
2023/04/30 01:38:53;;;;;;;;;25.00;23.75;;;;;13.06;58.35;101584.78;5059015;27;45383;-68
2023/04/30 01:41:49;;;;;;;;;20.00;20.00;;;;;13.00;58.32;101585.59;5104927;27;45505;-68
2023/04/30 01:44:36;;;;;;;;;23.50;21.50;;;;;12.99;58.30;101586.47;5065529;28;45543;-68
2023/04/30 01:47:35;;;;;;;;;23.00;21.75;;;;;13.00;58.64;101588.22;5074219;27;46037;-70
2023/04/30 01:50:29;;;;;;;;;27.75;21.00;;;;;13.02;58.24;101589.13;5086398;27;45685;-69
2023/04/30 01:52:59;;;;;;;;;25.75;21.25;;;;;12.93;58.98;101576.81;5063197;27;45642;-67
2023/04/30 01:55:47;;;;;;;;;23.25;19.00;;;;;13.03;58.24;101590.91;5061365;27;46062;-68
2023/04/30 01:58:14;;;;;;;;;21.50;19.75;;;;;13.00;58.58;101584.72;5072871;27;45662;-68
2023/04/30 02:00:40;;;;;;;;;22.00;18.25;;;;;13.01;58.49;101587.38;5085976;27;45608;-68
2023/04/30 02:03:06;;;;;;;;;22.75;21.00;;;;;13.10;58.59;101587.44;5058131;28;45244;-69
2023/04/30 02:05:32;;;;;;;;;21.75;20.00;;;;;13.09;58.99;101582.16;5067547;27;45473;-69
2023/04/30 02:07:58;;;;;;;;;19.75;18.00;;;;;13.05;58.83;101583.00;5055591;27;45692;-68
2023/04/30 02:10:42;;;;;;;;;22.75;17.50;;;;;13.06;58.61;101584.78;5086738;27;45452;-70
2023/04/30 02:13:09;;;;;;;;;24.75;20.50;;;;;13.08;58.29;101599.69;5055222;28;45597;-69
2023/04/30 02:15:34;;;;;;;;;21.50;21.00;;;;;13.06;58.90;101590.91;5054280;28;46244;-68
2023/04/30 02:18:00;;;;;;;;;23.50;21.25;;;;;13.01;58.73;101587.38;5053292;28;45523;-68
2023/04/30 02:20:25;;;;;;;;;25.50;21.00;;;;;13.08;58.67;101585.66;5073706;28;45452;-68
2023/04/30 02:22:52;;;;;;;;;21.75;18.50;;;;;13.08;58.64;101580.41;5073769;28;45568;-69
2023/04/30 02:25:17;;;;;;;;;23.50;16.50;;;;;13.20;57.89;101582.22;5073738;27;46131;-68
2023/04/30 02:27:43;;;;;;;;;23.50;19.00;;;;;13.11;58.10;101570.75;5055460;28;46681;-69
2023/04/30 02:30:09;;;;;;;;;23.25;18.25;;;;;13.21;57.83;101583.97;5057644;28;45353;-68
2023/04/30 02:32:34;;;;;;;;;22.50;20.75;;;;;13.20;57.52;101590.13;5067371;28;45557;-68
2023/04/30 02:35:00;;;;;;;;;19.75;16.50;;;;;13.10;57.53;101584.81;5101227;27;47517;-67
2023/04/30 02:37:26;;;;;;;;;28.25;21.75;;;;;13.05;57.71;101580.38;5067900;28;45814;-68
2023/04/30 02:39:52;;;;;;;;;21.75;18.75;;;;;13.10;58.03;101589.19;5072158;27;45438;-67
2023/04/30 02:42:18;;;;;;;;;24.50;20.00;;;;;13.14;57.39;101594.47;5074048;27;45394;-68
2023/04/30 02:44:43;;;;;;;;;22.00;19.50;;;;;13.10;57.57;101582.16;5088952;27;47024;-69
2023/04/30 02:47:09;;;;;;;;;30.25;24.25;;;;;13.10;57.71;101590.06;5073548;28;45416;-68
2023/04/30 02:49:35;;;;;;;;;20.50;18.75;;;;;13.07;57.51;101594.41;5073495;28;45731;-68
2023/04/30 02:52:00;;;;;;;;;21.50;19.00;;;;;13.05;57.67;101596.16;5073628;27;45465;-70
2023/04/30 02:54:26;;;;;;;;;21.50;16.50;;;;;13.02;57.68;101589.13;5073375;28;45759;-69
2023/04/30 02:56:52;;;;;;;;;17.25;14.75;;;;;12.97;57.74;101589.97;5073389;27;45436;-68
2023/04/30 02:59:18;;;;;;;;;17.00;14.00;;;;;12.99;57.95;101591.75;5076606;28;45300;-69
2023/04/30 03:01:43;;;;;;;;;19.50;18.00;;;;;13.01;58.10;101589.13;5078219;27;45474;-68
2023/04/30 03:04:09;;;;;;;;;21.75;17.00;;;;;12.90;58.36;101575.91;5112167;27;45660;-67
2023/04/30 03:06:34;;;;;;;;;19.50;19.50;;;;;12.93;58.83;101586.44;5081108;28;45522;-69
2023/04/30 03:09:00;;;;;;;;;17.75;16.00;;;;;12.86;58.41;101587.28;5081553;28;45513;-68
2023/04/30 03:11:26;;;;;;;;;24.50;21.50;;;;;12.87;59.06;101589.91;5078479;27;45639;-68
2023/04/30 03:13:52;;;;;;;;;25.50;20.50;;;;;12.82;58.31;101567.13;5077053;28;45422;-68
2023/04/30 03:16:20;;;;;;;;;22.25;17.75;;;;;12.73;59.26;101570.56;5076206;27;45880;-70
2023/04/30 03:18:47;;;;;;;;;16.75;15.00;;;;;12.85;59.22;101588.16;5076357;28;45978;-68
2023/04/30 03:21:13;;;;;;;;;22.25;15.75;;;;;12.84;58.98;101581.16;5076985;28;45347;-67
2023/04/30 03:23:38;;;;;;;;;20.75;16.50;;;;;12.86;58.70;101584.66;5074293;27;46170;-69
2023/04/30 03:26:04;;;;;;;;;18.25;15.25;;;;;12.77;58.97;101561.81;5091634;27;45723;-69
2023/04/30 03:28:30;;;;;;;;;15.25;14.50;;;;;12.83;59.21;101576.75;5076262;27;45570;-68
2023/04/30 03:30:55;;;;;;;;;17.25;15.00;;;;;12.93;58.52;101584.72;5076994;28;45428;-68
2023/04/30 03:33:21;;;;;;;;;23.50;19.00;;;;;12.98;58.66;101576.84;5079088;28;48108;-68
2023/04/30 03:35:47;;;;;;;;;29.75;23.75;;;;;13.04;58.75;101581.25;5066075;28;45440;-68
2023/04/30 03:38:13;;;;;;;;;26.00;20.25;;;;;12.91;58.49;101565.41;5078196;27;45925;-68
2023/04/30 03:40:39;;;;;;;;;22.75;20.00;;;;;13.01;58.66;101574.22;5075519;28;45591;-68
2023/04/30 03:43:04;;;;;;;;;24.00;19.25;;;;;13.00;58.90;101579.47;5079359;27;45730;-68
2023/04/30 03:45:30;;;;;;;;;28.75;20.75;;;;;13.02;59.04;101578.59;5076329;28;45656;-68
2023/04/30 03:47:56;;;;;;;;;25.75;23.00;;;;;13.08;58.47;101575.16;5074850;27;45531;-68
2023/04/30 03:50:21;;;;;;;;;24.25;20.00;;;;;12.97;58.96;101564.56;5092041;27;45469;-68
2023/04/30 03:52:47;;;;;;;;;30.75;26.50;;;;;12.82;59.11;101544.31;5074884;28;45445;-68
2023/04/30 03:55:12;;;;;;;;;29.75;28.50;;;;;12.94;59.10;101580.31;5078748;27;45355;-68
2023/04/30 03:57:42;;;;;;;;;26.75;24.75;;;;;12.91;59.22;101578.56;5080431;27;45336;-69
2023/04/30 04:00:12;;;;;;;;;23.25;22.50;;;;;12.82;59.21;101561.84;5080791;27;45393;-68
2023/04/30 04:02:38;;;;;;;;;28.50;23.75;;;;;12.87;59.38;101578.53;5078819;28;45370;-68
2023/04/30 04:05:04;;;;;;;;;25.75;21.75;;;;;12.82;59.67;101573.25;5075616;27;45396;-69
2023/04/30 04:07:30;;;;;;;;;34.75;27.25;;;;;12.78;60.20;101571.47;5075799;28;45856;-70
2023/04/30 04:09:55;;;;;;;;;29.25;25.00;;;;;12.74;59.84;101564.41;5076785;27;45450;-68
2023/04/30 04:12:21;;;;;;;;;28.50;26.25;;;;;12.71;60.70;101554.75;5075559;28;45688;-67
2023/04/30 04:14:47;;;;;;;;;47.00;33.75;;;;;12.83;60.18;101564.47;5074868;27;45470;-68
2023/04/30 04:17:13;;;;;;;;;40.50;31.25;;;;;12.85;60.51;101573.25;5090868;27;45913;-68
2023/04/30 04:19:39;;;;;;;;;36.25;27.50;;;;;12.78;60.77;101573.22;5076223;27;45745;-68
2023/04/30 04:22:05;;;;;;;;;33.50;27.75;;;;;12.65;60.81;101567.00;5077942;28;45561;-68
2023/04/30 04:24:30;;;;;;;;;30.25;27.00;;;;;12.73;60.90;101571.44;5076705;28;45484;-68
2023/04/30 04:26:56;;;;;;;;;33.25;28.25;;;;;12.79;60.75;101570.59;5074301;28;45595;-69
2023/04/30 04:29:22;;;;;;;;;32.50;24.75;;;;;12.68;61.01;101560.00;5076224;28;45410;-68
2023/04/30 04:31:49;;;;;;;;;34.75;26.50;;;;;12.66;61.13;101561.75;5078603;28;46040;-69
2023/04/30 04:34:16;;;;;;;;;33.25;25.50;;;;;12.62;60.98;101559.94;5070836;28;45560;-69
2023/04/30 04:36:41;;;;;;;;;30.25;25.75;;;;;12.69;61.28;101571.41;5065268;28;45455;-68
2023/04/30 04:39:07;;;;;;;;;32.00;25.50;;;;;12.76;60.88;101570.56;5069674;27;45673;-68
2023/04/30 04:41:34;;;;;;;;;37.25;31.50;;;;;12.80;61.54;101580.25;5072017;28;47984;-67
2023/04/30 04:44:03;;;;;;;;;29.25;25.75;;;;;12.75;61.46;101574.06;5079539;28;45411;-68
2023/04/30 04:46:32;;;;;;;;;35.50;31.50;;;;;12.83;60.78;101569.72;5077804;28;45396;-67
2023/04/30 04:48:57;;;;;;;;;36.00;30.00;;;;;12.82;60.99;101578.50;5073565;27;45400;-69
2023/04/30 04:51:23;;;;;;;;;42.50;37.00;;;;;12.82;61.12;101580.25;5073311;28;45468;-68
2023/04/30 04:53:49;;;;;;;;;36.75;31.75;;;;;12.66;61.33;101564.38;5064002;28;45383;-69
2023/04/30 04:56:15;;;;;;;;;37.00;31.25;;;;;12.60;61.58;101566.06;5088472;27;45401;-69
2023/04/30 04:58:41;;;;;;;;;35.75;29.25;;;;;12.73;61.47;101587.19;5074883;27;45699;-68
2023/04/30 05:01:08;;;;;;;;;29.50;27.25;;;;;12.78;61.08;101575.84;5074683;27;45528;-68
2023/04/30 05:03:37;;;;;;;;;33.00;22.50;;;;;12.88;61.18;101596.97;5090186;27;45428;-68
2023/04/30 05:06:03;;;;;;;;;33.50;25.50;;;;;12.86;61.20;101587.28;5074798;27;45418;-67
2023/04/30 05:08:29;;;;;;;;;30.00;27.00;;;;;12.92;61.44;101592.59;5075238;28;45794;-68
2023/04/30 05:10:54;;;;;;;;;26.25;22.50;;;;;12.99;61.09;101597.00;5074772;28;46047;-68
2023/04/30 05:13:20;;;;;;;;;30.50;27.50;;;;;13.00;61.43;101588.22;5073044;27;45964;-68
2023/04/30 05:15:48;;;;;;;;;31.50;23.75;;;;;13.01;60.79;101568.09;5090796;27;45769;-68
2023/04/30 05:18:13;;;;;;;;;34.75;28.75;;;;;13.02;60.53;101573.34;5075383;28;45426;-68
2023/04/30 05:20:39;;;;;;;;;30.00;23.25;;;;;13.16;60.71;101586.56;5077404;28;46414;-68
2023/04/30 05:23:04;;;;;;;;;32.00;25.50;;;;;13.23;60.40;101600.63;5078699;28;45306;-67
2023/04/30 05:25:30;;;;;;;;;31.50;27.75;;;;;13.10;60.42;101607.59;5073724;27;45344;-68
2023/04/30 05:27:55;;;;;;;;;36.25;28.75;;;;;13.02;60.83;101597.00;5074355;28;45445;-68
2023/04/30 05:30:21;;;;;;;;;34.50;28.75;;;;;13.06;60.77;101611.94;5078610;28;46419;-68
2023/04/30 05:32:50;;;;;;;;;30.25;25.25;;;;;12.88;60.69;101569.75;5076546;28;45597;-68
2023/04/30 05:35:17;;;;;;;;;34.75;30.25;;;;;13.05;60.86;101602.31;5061547;27;45429;-68
2023/04/30 05:37:42;;;;;;;;;37.75;27.00;;;;;13.21;60.62;101602.38;5076664;28;45413;-68
2023/04/30 05:40:09;;;;;;;;;23.00;17.25;;;;;13.31;59.97;101607.75;5107207;27;46780;-67
2023/04/30 05:42:35;;;;;;;;;28.50;23.25;;;;;13.36;59.74;101607.75;5074370;27;45442;-65
2023/04/30 05:45:01;;;;;;;;;37.50;22.25;;;;;13.43;59.90;101604.28;5060629;27;46011;-67
2023/04/30 05:47:27;;;;;;;;;30.00;24.50;;;;;13.44;60.41;101613.06;5087137;27;45557;-68
2023/04/30 05:49:52;;;;;;;;;29.50;24.00;;;;;13.54;59.87;101610.44;5057900;27;46813;-67
2023/04/30 05:52:18;;;;;;;;;29.50;23.00;;;;;13.60;59.65;101611.38;5061895;27;45448;-67
2023/04/30 05:54:44;;;;;;;;;24.50;20.50;;;;;13.64;59.18;101606.09;5061181;27;45453;-67
2023/04/30 05:57:09;;;;;;;;;25.75;22.50;;;;;13.72;59.08;101611.41;5062906;28;45888;-67
2023/04/30 05:59:35;;;;;;;;;37.50;34.00;;;;;13.74;58.67;101612.28;5079438;27;45527;-67
2023/04/30 06:02:00;;;;;;;;;39.75;32.75;;;;;13.77;58.17;101623.69;5066763;27;45469;-67
2023/04/30 06:04:26;;;;;;;;;45.25;33.00;;;;;13.63;58.40;101601.72;5083943;27;45804;-67
2023/04/30 06:06:52;;;;;;;;;40.75;33.00;;;;;13.67;59.12;101615.78;5064046;27;45412;-67
2023/04/30 06:09:17;;;;;;;;;34.50;28.75;;;;;13.57;58.72;101610.47;5070009;27;45610;-68
2023/04/30 06:11:47;;;;;;;;;36.00;28.25;;;;;13.56;58.56;101602.56;5062033;27;45426;-68
2023/04/30 06:14:13;;;;;;;;;43.75;34.50;;;;;13.51;58.85;101606.94;5069477;27;45437;-67
2023/04/30 06:16:39;;;;;;;;;42.75;36.25;;;;;13.48;59.21;101615.72;5079156;27;45911;-69
2023/04/30 06:19:05;;;;;;;;;44.25;32.50;;;;;13.38;59.28;101616.50;5061792;27;45932;-67
2023/04/30 06:21:30;;;;;;;;;39.00;34.50;;;;;13.35;59.52;101606.00;5067860;27;45503;-68
2023/04/30 06:23:56;;;;;;;;;40.25;34.25;;;;;13.34;59.61;101607.75;5060981;27;45310;-67
2023/04/30 06:26:21;;;;;;;;;40.75;34.50;;;;;13.40;59.01;101616.53;5064847;28;45850;-68
2023/04/30 06:28:47;;;;;;;;;38.75;33.75;;;;;13.41;59.32;101613.91;5057977;28;46712;-68
2023/04/30 06:31:13;;;;;;;;;29.25;24.50;;;;;13.55;59.02;101613.97;5064646;28;45492;-66
2023/04/30 06:33:38;;;;;;;;;33.00;25.00;;;;;13.62;58.77;101621.03;5064202;27;45480;-66
2023/04/30 06:36:05;;;;;;;;;33.50;29.50;;;;;13.58;59.39;101609.59;5059673;28;46995;-67
2023/04/30 06:38:30;;;;;;;;;31.50;30.75;;;;;13.57;59.16;101621.00;5065108;27;45529;-67
2023/04/30 06:40:56;;;;;;;;;29.25;26.00;;;;;13.64;58.99;101628.91;5056007;27;45470;-67
2023/04/30 06:43:22;;;;;;;;;33.25;24.50;;;;;13.85;58.66;101628.09;5053265;28;45481;-68
2023/04/30 06:45:47;;;;;;;;;25.25;21.00;;;;;13.95;58.35;101617.59;5055663;27;45465;-67
2023/04/30 06:48:13;;;;;;;;;35.00;30.50;;;;;14.11;57.83;101617.63;5070547;27;45416;-67
2023/04/30 06:50:43;;;;;;;;;39.75;31.25;;;;;14.05;58.35;101607.97;5058412;28;45361;-67
2023/04/30 06:53:11;;;;;;;;;43.50;32.25;;;;;14.24;58.38;101621.13;5061957;27;45371;-68
2023/04/30 06:55:36;;;;;;;;;31.75;28.25;;;;;14.26;57.61;101609.75;5088564;27;45343;-66
2023/04/30 06:58:04;;;;;;;;;37.00;33.25;;;;;14.28;57.82;101607.09;5052752;27;45360;-67
2023/04/30 07:00:29;;;;;;;;;43.75;33.75;;;;;14.40;57.47;101615.00;5053217;27;45683;-66
2023/04/30 07:02:56;;;;;;;;;42.00;34.00;;;;;14.38;56.88;101612.38;5059161;27;45509;-67
2023/04/30 07:05:21;;;;;;;;;34.50;30.25;;;;;14.36;57.18;101606.22;5060299;28;45472;-67
2023/04/30 07:07:48;;;;;;;;;32.75;27.50;;;;;14.50;57.01;101616.78;5064982;28;45421;-67
2023/04/30 07:10:13;;;;;;;;;34.25;28.50;;;;;14.59;57.15;101606.28;5052618;27;45595;-68
2023/04/30 07:12:39;;;;;;;;;32.00;24.50;;;;;14.74;56.33;101608.00;5066167;27;45836;-68
2023/04/30 07:15:05;;;;;;;;;29.75;25.25;;;;;14.86;56.57;101600.97;5055576;27;45517;-67
2023/04/30 07:17:34;;;;;;;;;28.25;24.50;;;;;14.93;55.93;101602.72;5060301;28;45452;-67
2023/04/30 07:20:03;;;;;;;;;28.00;23.25;;;;;15.10;56.04;101616.72;5070442;27;46020;-68
2023/04/30 07:22:30;;;;;;;;;35.25;26.00;;;;;15.21;55.77;101620.22;5059435;27;45500;-67
2023/04/30 07:24:55;;;;;;;;;25.75;25.00;;;;;15.28;55.56;101621.09;5056875;28;45488;-67
2023/04/30 07:27:34;;;;;;;;;29.50;26.50;;;;;15.33;55.08;101613.13;5054842;27;45620;-68
2023/04/30 07:30:00;;;;;;;;;27.50;24.50;;;;;15.48;54.79;101621.00;5065112;27;45926;-67
2023/04/30 07:32:26;;;;;;;;;32.75;26.25;;;;;15.58;54.83;101627.97;5052969;27;45438;-67
2023/04/30 07:34:53;;;;;;;;;35.25;27.25;;;;;15.66;54.26;101626.19;5052238;28;45585;-68
2023/04/30 07:37:20;;;;;;;;;34.50;27.25;;;;;15.72;54.07;101614.75;5061047;28;47083;-67
2023/04/30 07:39:46;;;;;;;;;38.00;30.50;;;;;15.82;53.76;101619.09;5086706;27;45818;-67
2023/04/30 07:42:24;;;;;;;;;38.50;34.00;;;;;15.93;53.87;101626.09;5051369;28;45500;-67
2023/04/30 07:44:51;;;;;;;;;49.00;35.00;;;;;15.85;53.14;101604.97;5071468;27;45745;-68
2023/04/30 07:47:18;;;;;;;;;50.50;39.75;;;;;15.98;53.46;101632.22;5092310;27;47169;-67
2023/04/30 07:49:46;;;;;;;;;47.25;37.50;;;;;15.87;53.43;101629.63;5094364;27;45570;-69
2023/04/30 07:52:11;;;;;;;;;38.75;33.50;;;;;15.86;54.46;101635.81;5092313;27;45478;-66
2023/04/30 07:54:38;;;;;;;;;35.00;26.25;;;;;15.99;53.74;101621.66;5080373;27;45498;-68
2023/04/30 07:57:05;;;;;;;;;46.75;37.25;;;;;15.95;52.77;101604.06;5095930;27;48134;-67
2023/04/30 07:59:31;;;;;;;;;49.75;36.75;;;;;15.98;53.26;101619.88;5075713;27;45776;-68
2023/04/30 08:01:57;;;;;;;;;41.75;35.00;;;;;15.93;53.35;101626.97;5092558;27;45452;-68
2023/04/30 08:04:23;;;;;;;;;53.25;37.50;;;;;15.87;52.92;101619.97;5080562;27;45421;-69
2023/04/30 08:06:51;;;;;;;;;54.00;41.00;;;;;15.86;53.16;101622.59;5078712;27;47698;-69
2023/04/30 08:09:20;;;;;;;;;42.25;34.50;;;;;15.86;53.39;101614.69;5080740;27;45318;-68
2023/04/30 08:11:49;;;;;;;;;31.75;27.25;;;;;15.71;53.02;101546.97;5076450;27;45480;-68
2023/04/30 08:14:15;;;;;;;;;41.50;33.00;;;;;16.21;53.07;101617.09;5076154;27;45380;-69
2023/04/30 08:16:40;;;;;;;;;48.75;37.75;;;;;16.42;52.40;101623.09;5079323;27;46306;-68
2023/04/30 08:19:06;;;;;;;;;48.25;37.25;;;;;16.38;52.13;101608.16;5080295;27;45396;-68
2023/04/30 08:21:32;;;;;;;;;50.75;35.75;;;;;16.32;52.36;101615.25;5080344;27;45813;-67
2023/04/30 08:23:57;;;;;;;;;46.25;33.75;;;;;16.30;52.54;101598.53;5077296;27;45519;-69
2023/04/30 08:26:24;;;;;;;;;42.75;32.75;;;;;16.58;52.20;101610.63;5075616;27;45447;-69
2023/04/30 08:28:50;;;;;;;;;40.75;33.75;;;;;16.71;51.58;101605.22;5074925;27;45461;-68
2023/04/30 08:31:16;;;;;;;;;37.00;29.00;;;;;16.83;51.82;101598.09;5076677;27;45493;-68
2023/04/30 08:33:42;;;;;;;;;53.75;39.75;;;;;16.90;50.89;101599.78;5080129;27;45369;-69
2023/04/30 08:36:08;;;;;;;;;39.75;32.75;;;;;16.91;50.89;101599.75;5064922;28;46482;-71
2023/04/30 08:38:33;;;;;;;;;48.25;36.75;;;;;16.98;50.83;101607.63;5092337;27;45527;-68
2023/04/30 08:41:10;;;;;;;;;46.50;36.00;;;;;16.79;50.50;101597.22;5075670;28;45652;-68
2023/04/30 08:43:36;;;;;;;;;36.25;29.75;;;;;16.88;51.08;101610.38;5080319;28;45239;-68
2023/04/30 08:46:03;;;;;;;;;49.25;35.50;;;;;16.99;51.04;101609.38;5079448;28;45443;-69
2023/04/30 08:48:29;;;;;;;;;44.75;36.75;;;;;16.95;51.00;101600.59;5079653;28;45605;-69
2023/04/30 08:50:55;;;;;;;;;41.50;34.00;;;;;17.05;50.96;101602.25;5079846;28;45350;-68
2023/04/30 08:53:21;;;;;;;;;42.25;32.50;;;;;17.11;50.92;101610.13;5095783;27;45497;-68
2023/04/30 08:55:47;;;;;;;;;44.00;35.75;;;;;17.15;50.54;101603.88;5075902;28;45537;-68
2023/04/30 08:58:12;;;;;;;;;42.25;34.75;;;;;17.09;50.40;101588.09;5075223;27;45945;-69
2023/04/30 09:00:39;;;;;;;;;42.00;32.75;;;;;17.16;50.98;101604.78;5073669;28;45694;-69
2023/04/30 09:03:06;;;;;;;;;40.50;32.50;;;;;17.13;51.07;101588.91;5075230;27;45295;-69
2023/04/30 09:05:32;;;;;;;;;30.00;26.50;;;;;17.13;51.11;101583.63;5075254;27;46259;-71
2023/04/30 09:07:58;;;;;;;;;38.75;31.25;;;;;17.11;51.25;101588.09;5075093;28;45642;-70
2023/04/30 09:10:24;;;;;;;;;31.33;28.33;;;;;17.33;51.91;101586.03;5075283;27;45476;-72
2023/04/30 09:13:00;;;;;;;;;40.50;28.00;;;;;17.45;50.30;101591.19;5075990;28;45496;-73
2023/04/30 09:15:27;;;;;;;;;40.75;32.75;;;;;17.52;50.39;101587.56;5077887;28;45425;-72
2023/04/30 09:18:11;;;;;;;;;41.50;32.25;;;;;17.57;49.46;101583.06;5075804;28;45433;-69
2023/04/30 09:20:37;;;;;;;;;31.33;26.33;;;;;17.76;49.64;101593.41;5073474;28;45823;-69
2023/04/30 09:23:10;;;;;;;;;37.50;31.75;;;;;17.79;49.33;101598.66;5077528;27;45478;-69
2023/04/30 09:25:42;;;;;;;;;35.67;30.00;;;;;17.80;49.15;101589.84;5094775;27;45500;-68
2023/04/30 09:28:12;;;;;;;;;26.00;24.00;;;;;17.98;49.24;101584.28;5092620;27;45906;-69
2023/04/30 09:30:42;;;;;;;;;40.75;35.00;;;;;18.10;48.45;101588.50;5107262;27;45915;-68
2023/04/30 09:33:08;;;;;;;;;41.00;33.00;;;;;18.16;48.55;101591.06;5074008;28;45529;-70
2023/04/30 09:35:37;;;;;;;;;37.25;33.25;;;;;18.19;48.32;101590.16;5071017;28;46176;-68
2023/04/30 09:38:03;;;;;;;;;33.67;30.33;;;;;18.10;48.21;101593.81;5073725;27;46482;-69
2023/04/30 09:40:41;;;;;;;;;40.00;32.50;;;;;18.05;48.11;101570.94;5075511;27;45437;-68
2023/04/30 09:43:08;;;;;;;;;34.33;29.33;;;;;18.16;48.74;101590.22;5074116;27;45449;-70
2023/04/30 09:45:41;;;;;;;;;33.67;29.00;;;;;18.16;47.88;101583.13;5070702;27;46868;-69
2023/04/30 09:48:13;;;;;;;;;33.00;29.00;;;;;18.02;47.73;101546.22;5076075;28;45524;-68
2023/04/30 09:50:40;;;;;;;;;30.75;24.75;;;;;18.23;47.43;101582.13;5079062;27;45374;-68
2023/04/30 09:53:12;;;;;;;;;45.25;31.75;;;;;18.29;47.82;101564.34;5061364;27;45350;-69
2023/04/30 09:55:41;;;;;;;;;26.00;23.00;;;;;18.46;47.75;101561.41;5060104;27;47146;-69
2023/04/30 09:58:06;;;;;;;;;31.67;26.00;;;;;18.69;46.81;101567.19;5062629;27;45464;-68
2023/04/30 10:00:36;;;;;;;;;33.00;25.67;;;;;18.80;47.08;101567.91;5063634;27;45432;-69
2023/04/30 10:03:08;;;;;;;;;24.67;21.67;;;;;19.00;47.08;101558.66;5080132;27;45365;-69
2023/04/30 10:05:41;;;;;;;;;16.00;14.33;;;;;19.25;46.56;101557.25;5063566;28;45441;-69
2023/04/30 10:08:14;;;;;;;;;15.00;13.00;;;;;19.37;46.45;101557.91;5064989;27;46233;-70
2023/04/30 10:10:42;;;;;;;;;16.33;13.67;;;;;19.45;46.14;101562.13;5057667;27;45533;-70
2023/04/30 10:13:13;;;;;;;;;16.00;14.00;;;;;19.62;45.81;101545.84;5064589;27;46284;-69
2023/04/30 10:15:47;;;;;;;;;17.67;13.33;;;;;19.72;45.24;101546.53;5069013;27;45649;-69
2023/04/30 10:18:27;;;;;;;;;23.67;21.67;;;;;19.75;44.71;101553.56;5062128;27;45554;-69
2023/04/30 10:20:54;;;;;;;;;24.33;23.00;;;;;19.73;44.53;101548.28;5060764;27;45877;-70
2023/04/30 10:23:23;;;;;;;;;23.00;19.00;;;;;19.68;44.46;101544.84;5065629;27;45667;-68
2023/04/30 10:25:50;;;;;;;;;25.67;23.00;;;;;19.57;44.63;101549.50;5054087;27;46036;-70
2023/04/30 10:28:16;;;;;;;;;25.33;18.33;;;;;19.45;44.71;101546.19;5053719;27;45963;-68
2023/04/30 10:30:42;;;;;;;;;18.00;15.67;;;;;19.55;44.75;101528.28;5055130;27;45438;-69
2023/04/30 10:33:14;;;;;;;;;21.67;18.00;;;;;19.73;43.96;101534.13;5057725;27;45350;-68
2023/04/30 10:35:49;;;;;;;;;22.00;18.00;;;;;19.78;43.47;101540.19;5059180;28;46218;-69
2023/04/30 10:38:25;;;;;;;;;21.33;21.00;;;;;19.87;43.38;101524.91;5071774;28;45575;-69
2023/04/30 10:40:56;;;;;;;;;21.00;14.33;;;;;19.94;43.88;101509.69;5074700;28;45409;-68
2023/04/30 10:43:26;;;;;;;;;21.67;16.67;;;;;20.09;43.24;101519.91;5090835;27;45412;-71
2023/04/30 10:45:52;;;;;;;;;27.00;19.33;;;;;19.92;42.28;101524.78;5073353;28;45756;-71
2023/04/30 10:48:25;;;;;;;;;19.67;17.67;;;;;19.76;43.06;101521.63;5073088;28;45486;-68
2023/04/30 10:50:54;;;;;;;;;15.67;14.67;;;;;19.80;42.82;101520.63;5073475;27;45882;-68
2023/04/30 10:53:21;;;;;;;;;17.00;15.00;;;;;19.81;43.30;101510.88;5075288;28;45948;-70
2023/04/30 10:56:05;;;;;;;;;15.33;14.00;;;;;20.05;43.48;101512.06;5077522;28;45439;-70
2023/04/30 10:58:33;;;;;;;;;16.67;13.67;;;;;20.16;43.67;101514.47;5073642;27;45527;-71
2023/04/30 11:01:14;;;;;;;;;15.00;11.33;;;;;20.09;46.42;101511.94;5073269;28;45899;-70
2023/04/30 11:04:07;;;;;;;;;17.33;13.67;;;;;19.99;41.81;101512.22;5073196;28;45833;-71
2023/04/30 11:06:50;;;;;;;;;11.33;10.67;;;;;19.73;42.45;101502.22;5074678;28;45730;-69
2023/04/30 11:09:18;;;;;;;;;19.33;15.67;;;;;19.73;42.14;101515.50;5073880;28;45621;-71
2023/04/30 11:11:46;;;;;;;;;9.00;9.00;;;;;19.52;42.23;101484.97;5072997;27;45868;-71
2023/04/30 11:14:19;;;;;;;;;12.67;11.67;;;;;19.74;41.39;101506.63;5073942;27;45543;-70